Deerfield, Illinois
Current Conditions -  °F | °C
As of 2:52 PM on Tuesday 25 Nov 2014 (Local Time) from KPWK Reporting Station
Scattered Clouds Scattered Clouds  
Wind Chill: 16°   Ceiling: Unl
Heat Index: 26°   Visibility: 10mi
Dew Point: 16°   Wind: 10mph
Humidity: 66%   Direction: 250°WSW
Pressure: 30.15"   Gusts: NA
Location:  42.17°N, 87.85°W
Report Text: KPWK 252052Z 25009KT 10SM SCT025 M03/M09 A3015 RMK AO2 SLP219 T10331089 53018
Loading
Personal Weather Stations






























Interactive Weather Map New forecast layout! Learn more

10-Day Weather Forecast

Advertisements
Track Severe Weather on mobile